Waterford, Mississippi
Current Conditions -  °F | °C
As of 5:35 PM on Saturday 22 Nov 2014 (Local Time) from KUOX Reporting Station
Clear Clear  
Wind Chill: 14°   Ceiling: Unl
Heat Index: 14°   Visibility: 10mi
Dew Point:   Wind: 3mph
Humidity: 55%   Direction: 120°ESE
Pressure: 30.08"   Gusts: NA
Location:  34.65°N, 89.46°W
Report Text: KUOX 222335Z AUTO 12003KT 10SM CLR 14/05 A3008 RMK AO2 PWINO PNO
Loading
Personal Weather Stations






























Interactive Weather Map New forecast layout! Learn more

10-Day Weather Forecast

Advertisements
Track Severe Weather on mobile